sensor_id;sensor_type;location;lat;lon;timestamp;temperature;humidity
59007;DHT22;44792;52.760;6.726;2022-11-20T00:01:19;-0.70;99.90
59007;DHT22;44792;52.760;6.726;2022-11-20T00:03:45;-0.80;99.90
59007;DHT22;44792;52.760;6.726;2022-11-20T00:06:13;-0.80;99.90
59007;DHT22;44792;52.760;6.726;2022-11-20T00:08:39;-0.70;99.90
59007;DHT22;44792;52.760;6.726;2022-11-20T00:11:10;-0.70;99.90
59007;DHT22;44792;52.760;6.726;2022-11-20T00:13:36;-0.70;99.90
59007;DHT22;44792;52.760;6.726;2022-11-20T00:16:03;-0.80;99.90
59007;DHT22;44792;52.760;6.726;2022-11-20T00:18:29;-0.80;99.90
59007;DHT22;44792;52.760;6.726;2022-11-20T00:21:12;-0.70;99.90
59007;DHT22;44792;52.760;6.726;2022-11-20T00:23:38;-0.60;99.90
59007;DHT22;44792;52.760;6.726;2022-11-20T00:26:05;-0.50;99.90
59007;DHT22;44792;52.760;6.726;2022-11-20T00:28:31;-0.60;99.90
59007;DHT22;44792;52.760;6.726;2022-11-20T00:31:04;-0.70;99.90
59007;DHT22;44792;52.760;6.726;2022-11-20T00:33:31;-0.60;99.90
59007;DHT22;44792;52.760;6.726;2022-11-20T00:36:07;-0.50;99.90
59007;DHT22;44792;52.760;6.726;2022-11-20T00:38:33;-0.40;99.90
59007;DHT22;44792;52.760;6.726;2022-11-20T00:41:01;-0.40;99.90
59007;DHT22;44792;52.760;6.726;2022-11-20T00:43:27;-0.40;99.90
59007;DHT22;44792;52.760;6.726;2022-11-20T00:46:00;-0.30;99.90
59007;DHT22;44792;52.760;6.726;2022-11-20T00:48:26;-0.50;99.90
59007;DHT22;44792;52.760;6.726;2022-11-20T00:50:52;-0.40;99.90
59007;DHT22;44792;52.760;6.726;2022-11-20T00:53:18;-0.40;99.90
59007;DHT22;44792;52.760;6.726;2022-11-20T00:55:53;-0.40;99.90
59007;DHT22;44792;52.760;6.726;2022-11-20T00:58:18;-0.50;99.90
59007;DHT22;44792;52.760;6.726;2022-11-20T01:00:44;-0.30;99.90
59007;DHT22;44792;52.760;6.726;2022-11-20T01:03:09;-0.30;99.90
59007;DHT22;44792;52.760;6.726;2022-11-20T01:05:35;-0.50;99.90
59007;DHT22;44792;52.760;6.726;2022-11-20T01:08:01;-0.40;99.90
59007;DHT22;44792;52.760;6.726;2022-11-20T01:10:26;-0.30;99.90
59007;DHT22;44792;52.760;6.726;2022-11-20T01:12:52;-0.30;99.90
59007;DHT22;44792;52.760;6.726;2022-11-20T01:15:37;-0.30;99.90
59007;DHT22;44792;52.760;6.726;2022-11-20T01:18:03;-0.30;99.90
59007;DHT22;44792;52.760;6.726;2022-11-20T01:20:29;-0.40;99.90
59007;DHT22;44792;52.760;6.726;2022-11-20T01:22:54;-0.30;99.90
59007;DHT22;44792;52.760;6.726;2022-11-20T01:25:20;-0.30;99.90
59007;DHT22;44792;52.760;6.726;2022-11-20T01:27:45;-0.20;99.90
59007;DHT22;44792;52.760;6.726;2022-11-20T01:30:11;-0.20;99.90
59007;DHT22;44792;52.760;6.726;2022-11-20T01:32:37;-0.30;99.90
59007;DHT22;44792;52.760;6.726;2022-11-20T01:35:03;-0.30;99.90
59007;DHT22;44792;52.760;6.726;2022-11-20T01:37:28;-0.20;99.90
59007;DHT22;44792;52.760;6.726;2022-11-20T01:39:54;-0.30;99.90
59007;DHT22;44792;52.760;6.726;2022-11-20T01:42:19;-0.20;99.90
59007;DHT22;44792;52.760;6.726;2022-11-20T01:48:08;-0.20;99.90
59007;DHT22;44792;52.760;6.726;2022-11-20T01:50:33;-0.20;99.90
59007;DHT22;44792;52.760;6.726;2022-11-20T01:53:02;-0.10;99.90
59007;DHT22;44792;52.760;6.726;2022-11-20T01:55:32;-0.10;99.90
59007;DHT22;44792;52.760;6.726;2022-11-20T01:57:59;-0.10;99.90
59007;DHT22;44792;52.760;6.726;2022-11-20T02:00:26;-0.10;99.90
59007;DHT22;44792;52.760;6.726;2022-11-20T02:02:56;0.00;99.90
59007;DHT22;44792;52.760;6.726;2022-11-20T02:05:28;0.10;99.90
59007;DHT22;44792;52.760;6.726;2022-11-20T02:07:56;0.10;99.90
59007;DHT22;44792;52.760;6.726;2022-11-20T02:10:22;0.10;99.90
59007;DHT22;44792;52.760;6.726;2022-11-20T02:12:48;0.10;99.90
59007;DHT22;44792;52.760;6.726;2022-11-20T02:15:32;0.00;99.90
59007;DHT22;44792;52.760;6.726;2022-11-20T02:17:58;0.10;99.90
59007;DHT22;44792;52.760;6.726;2022-11-20T02:20:24;0.20;99.90
59007;DHT22;44792;52.760;6.726;2022-11-20T02:23:01;0.20;99.90
59007;DHT22;44792;52.760;6.726;2022-11-20T02:25:32;0.30;99.90
59007;DHT22;44792;52.760;6.726;2022-11-20T02:27:59;0.30;99.90
59007;DHT22;44792;52.760;6.726;2022-11-20T02:30:24;0.30;99.90
59007;DHT22;44792;52.760;6.726;2022-11-20T02:32:50;0.40;99.90
59007;DHT22;44792;52.760;6.726;2022-11-20T02:37:45;0.40;99.90
59007;DHT22;44792;52.760;6.726;2022-11-20T02:40:12;0.30;99.90
59007;DHT22;44792;52.760;6.726;2022-11-20T02:42:37;0.20;99.90
59007;DHT22;44792;52.760;6.726;2022-11-20T02:45:04;0.30;99.90
59007;DHT22;44792;52.760;6.726;2022-11-20T02:47:30;0.40;99.90
59007;DHT22;44792;52.760;6.726;2022-11-20T02:49:56;0.40;99.90
59007;DHT22;44792;52.760;6.726;2022-11-20T02:52:21;0.40;99.90
59007;DHT22;44792;52.760;6.726;2022-11-20T02:54:47;0.40;99.90
59007;DHT22;44792;52.760;6.726;2022-11-20T02:57:12;0.40;99.90
59007;DHT22;44792;52.760;6.726;2022-11-20T02:59:38;0.40;99.90
59007;DHT22;44792;52.760;6.726;2022-11-20T03:02:03;0.40;99.90
59007;DHT22;44792;52.760;6.726;2022-11-20T03:04:30;0.40;99.90
59007;DHT22;44792;52.760;6.726;2022-11-20T03:06:56;0.40;99.90
59007;DHT22;44792;52.760;6.726;2022-11-20T03:09:21;0.50;99.90
59007;DHT22;44792;52.760;6.726;2022-11-20T03:11:47;0.50;99.90
59007;DHT22;44792;52.760;6.726;2022-11-20T03:14:13;0.40;99.90
59007;DHT22;44792;52.760;6.726;2022-11-20T03:16:39;0.40;99.90
59007;DHT22;44792;52.760;6.726;2022-11-20T03:19:05;0.50;99.90
59007;DHT22;44792;52.760;6.726;2022-11-20T03:21:33;0.40;99.90
59007;DHT22;44792;52.760;6.726;2022-11-20T03:23:58;0.40;99.90
59007;DHT22;44792;52.760;6.726;2022-11-20T03:26:26;0.50;99.90
59007;DHT22;44792;52.760;6.726;2022-11-20T03:28:54;0.50;99.90
59007;DHT22;44792;52.760;6.726;2022-11-20T03:31:22;0.50;99.90
59007;DHT22;44792;52.760;6.726;2022-11-20T03:33:48;0.40;99.90
59007;DHT22;44792;52.760;6.726;2022-11-20T03:36:15;0.30;99.90
59007;DHT22;44792;52.760;6.726;2022-11-20T03:38:41;0.40;99.90
59007;DHT22;44792;52.760;6.726;2022-11-20T03:41:12;0.50;99.90
59007;DHT22;44792;52.760;6.726;2022-11-20T03:43:38;0.40;99.90
59007;DHT22;44792;52.760;6.726;2022-11-20T03:46:04;0.40;99.90
59007;DHT22;44792;52.760;6.726;2022-11-20T03:48:30;0.40;99.90
59007;DHT22;44792;52.760;6.726;2022-11-20T03:51:13;0.40;99.90
59007;DHT22;44792;52.760;6.726;2022-11-20T03:53:40;0.50;99.90
59007;DHT22;44792;52.760;6.726;2022-11-20T03:56:07;0.50;99.90
59007;DHT22;44792;52.760;6.726;2022-11-20T03:58:34;0.50;99.90
59007;DHT22;44792;52.760;6.726;2022-11-20T04:01:06;0.40;99.90
59007;DHT22;44792;52.760;6.726;2022-11-20T04:03:32;0.50;99.90
59007;DHT22;44792;52.760;6.726;2022-11-20T04:06:03;0.50;99.90
59007;DHT22;44792;52.760;6.726;2022-11-20T04:08:29;0.60;99.90
59007;DHT22;44792;52.760;6.726;2022-11-20T04:10:55;0.60;99.90
59007;DHT22;44792;52.760;6.726;2022-11-20T04:13:20;0.60;99.90
59007;DHT22;44792;52.760;6.726;2022-11-20T04:15:46;0.70;99.90
59007;DHT22;44792;52.760;6.726;2022-11-20T04:18:11;0.60;99.90
59007;DHT22;44792;52.760;6.726;2022-11-20T04:20:37;0.70;99.90
59007;DHT22;44792;52.760;6.726;2022-11-20T04:23:02;0.70;99.90
59007;DHT22;44792;52.760;6.726;2022-11-20T04:25:28;0.60;99.90
59007;DHT22;44792;52.760;6.726;2022-11-20T04:27:53;0.60;99.90
59007;DHT22;44792;52.760;6.726;2022-11-20T04:30:19;0.60;99.90
59007;DHT22;44792;52.760;6.726;2022-11-20T04:32:45;0.60;99.90
59007;DHT22;44792;52.760;6.726;2022-11-20T04:35:10;0.60;99.90
59007;DHT22;44792;52.760;6.726;2022-11-20T04:37:36;0.60;99.90
59007;DHT22;44792;52.760;6.726;2022-11-20T04:40:01;0.60;99.90
59007;DHT22;44792;52.760;6.726;2022-11-20T04:42:27;0.60;99.90
59007;DHT22;44792;52.760;6.726;2022-11-20T04:44:56;0.60;99.90
59007;DHT22;44792;52.760;6.726;2022-11-20T04:47:22;0.70;99.90
59007;DHT22;44792;52.760;6.726;2022-11-20T04:49:47;0.60;99.90
59007;DHT22;44792;52.760;6.726;2022-11-20T04:52:13;0.60;99.90
59007;DHT22;44792;52.760;6.726;2022-11-20T04:54:39;0.60;99.90
59007;DHT22;44792;52.760;6.726;2022-11-20T04:57:04;0.60;99.90
59007;DHT22;44792;52.760;6.726;2022-11-20T04:59:30;0.80;99.90
59007;DHT22;44792;52.760;6.726;2022-11-20T05:01:55;0.80;99.90
59007;DHT22;44792;52.760;6.726;2022-11-20T05:04:21;0.90;99.90
59007;DHT22;44792;52.760;6.726;2022-11-20T05:06:47;0.90;99.90
59007;DHT22;44792;52.760;6.726;2022-11-20T05:09:12;0.90;99.90
59007;DHT22;44792;52.760;6.726;2022-11-20T05:11:38;0.90;99.90
59007;DHT22;44792;52.760;6.726;2022-11-20T05:14:04;0.80;99.90
59007;DHT22;44792;52.760;6.726;2022-11-20T05:16:29;0.80;99.90
59007;DHT22;44792;52.760;6.726;2022-11-20T05:18:55;0.70;99.90
59007;DHT22;44792;52.760;6.726;2022-11-20T05:21:21;0.70;99.90
59007;DHT22;44792;52.760;6.726;2022-11-20T05:23:46;0.70;99.90
59007;DHT22;44792;52.760;6.726;2022-11-20T05:26:15;0.80;99.90
59007;DHT22;44792;52.760;6.726;2022-11-20T05:28:41;0.80;99.90
59007;DHT22;44792;52.760;6.726;2022-11-20T05:31:09;0.90;99.90
59007;DHT22;44792;52.760;6.726;2022-11-20T05:33:35;0.90;99.90
59007;DHT22;44792;52.760;6.726;2022-11-20T05:36:02;0.90;99.90
59007;DHT22;44792;52.760;6.726;2022-11-20T05:38:28;1.00;99.90
59007;DHT22;44792;52.760;6.726;2022-11-20T05:40:54;0.90;99.90
59007;DHT22;44792;52.760;6.726;2022-11-20T05:43:19;0.80;99.90
59007;DHT22;44792;52.760;6.726;2022-11-20T05:45:54;0.70;99.90
59007;DHT22;44792;52.760;6.726;2022-11-20T05:48:20;0.90;99.90
59007;DHT22;44792;52.760;6.726;2022-11-20T05:50:47;0.80;99.90
59007;DHT22;44792;52.760;6.726;2022-11-20T05:53:12;0.90;99.90
59007;DHT22;44792;52.760;6.726;2022-11-20T05:55:38;0.90;99.90
59007;DHT22;44792;52.760;6.726;2022-11-20T05:58:03;1.00;99.90
59007;DHT22;44792;52.760;6.726;2022-11-20T06:00:29;0.90;99.90
59007;DHT22;44792;52.760;6.726;2022-11-20T06:02:54;0.90;99.90
59007;DHT22;44792;52.760;6.726;2022-11-20T06:05:20;0.90;99.90
59007;DHT22;44792;52.760;6.726;2022-11-20T06:07:45;0.80;99.90
59007;DHT22;44792;52.760;6.726;2022-11-20T06:10:11;0.90;99.90
59007;DHT22;44792;52.760;6.726;2022-11-20T06:12:37;0.90;99.90
59007;DHT22;44792;52.760;6.726;2022-11-20T06:15:04;0.80;99.90
59007;DHT22;44792;52.760;6.726;2022-11-20T06:17:29;0.80;99.90
59007;DHT22;44792;52.760;6.726;2022-11-20T06:19:55;0.80;99.90
59007;DHT22;44792;52.760;6.726;2022-11-20T06:22:20;1.00;99.90
59007;DHT22;44792;52.760;6.726;2022-11-20T06:24:46;1.00;99.90
59007;DHT22;44792;52.760;6.726;2022-11-20T06:27:11;1.00;99.90
59007;DHT22;44792;52.760;6.726;2022-11-20T06:29:37;1.10;99.90
59007;DHT22;44792;52.760;6.726;2022-11-20T06:32:02;1.00;99.90
59007;DHT22;44792;52.760;6.726;2022-11-20T06:34:28;1.10;99.90
59007;DHT22;44792;52.760;6.726;2022-11-20T06:36:53;1.10;99.90
59007;DHT22;44792;52.760;6.726;2022-11-20T06:39:19;1.10;99.90
59007;DHT22;44792;52.760;6.726;2022-11-20T06:41:44;1.10;99.90
59007;DHT22;44792;52.760;6.726;2022-11-20T06:44:10;1.10;99.90
59007;DHT22;44792;52.760;6.726;2022-11-20T06:46:35;1.10;99.90
59007;DHT22;44792;52.760;6.726;2022-11-20T06:49:01;1.10;99.90
59007;DHT22;44792;52.760;6.726;2022-11-20T06:51:26;1.00;99.90
59007;DHT22;44792;52.760;6.726;2022-11-20T06:53:53;1.00;99.90
59007;DHT22;44792;52.760;6.726;2022-11-20T06:56:18;1.00;99.90
59007;DHT22;44792;52.760;6.726;2022-11-20T06:58:44;1.00;99.90
59007;DHT22;44792;52.760;6.726;2022-11-20T07:01:12;1.00;99.90
59007;DHT22;44792;52.760;6.726;2022-11-20T07:03:38;1.10;99.90
59007;DHT22;44792;52.760;6.726;2022-11-20T07:06:04;1.20;99.90
59007;DHT22;44792;52.760;6.726;2022-11-20T07:08:30;1.10;99.90
59007;DHT22;44792;52.760;6.726;2022-11-20T07:11:03;1.00;99.90
59007;DHT22;44792;52.760;6.726;2022-11-20T07:13:29;1.00;99.90
59007;DHT22;44792;52.760;6.726;2022-11-20T07:15:58;1.10;99.90
59007;DHT22;44792;52.760;6.726;2022-11-20T07:18:24;1.00;99.90
59007;DHT22;44792;52.760;6.726;2022-11-20T07:20:49;1.00;99.90
59007;DHT22;44792;52.760;6.726;2022-11-20T07:23:15;1.10;99.90
59007;DHT22;44792;52.760;6.726;2022-11-20T07:25:40;1.20;99.90
59007;DHT22;44792;52.760;6.726;2022-11-20T07:28:06;1.20;99.90
59007;DHT22;44792;52.760;6.726;2022-11-20T07:30:31;1.10;99.90
59007;DHT22;44792;52.760;6.726;2022-11-20T07:32:57;1.20;99.90
59007;DHT22;44792;52.760;6.726;2022-11-20T07:35:23;1.10;99.90
59007;DHT22;44792;52.760;6.726;2022-11-20T07:37:49;1.20;99.90
59007;DHT22;44792;52.760;6.726;2022-11-20T07:40:15;1.20;99.90
59007;DHT22;44792;52.760;6.726;2022-11-20T07:42:52;1.10;99.90
59007;DHT22;44792;52.760;6.726;2022-11-20T07:45:19;1.00;99.90
59007;DHT22;44792;52.760;6.726;2022-11-20T07:47:45;1.00;99.90
59007;DHT22;44792;52.760;6.726;2022-11-20T07:50:10;1.10;99.90
59007;DHT22;44792;52.760;6.726;2022-11-20T07:52:36;1.20;99.90
59007;DHT22;44792;52.760;6.726;2022-11-20T07:55:02;1.20;99.90
59007;DHT22;44792;52.760;6.726;2022-11-20T07:57:27;1.10;99.90
59007;DHT22;44792;52.760;6.726;2022-11-20T07:59:53;1.00;99.90
59007;DHT22;44792;52.760;6.726;2022-11-20T08:02:19;1.10;99.90
59007;DHT22;44792;52.760;6.726;2022-11-20T08:04:45;1.10;99.90
59007;DHT22;44792;52.760;6.726;2022-11-20T08:07:10;1.10;99.90
59007;DHT22;44792;52.760;6.726;2022-11-20T08:09:36;1.10;99.90
59007;DHT22;44792;52.760;6.726;2022-11-20T08:12:01;1.10;99.90
59007;DHT22;44792;52.760;6.726;2022-11-20T08:14:45;1.20;99.90
59007;DHT22;44792;52.760;6.726;2022-11-20T08:17:11;1.10;99.90
59007;DHT22;44792;52.760;6.726;2022-11-20T08:19:37;1.10;99.90
59007;DHT22;44792;52.760;6.726;2022-11-20T08:22:03;1.10;99.90
59007;DHT22;44792;52.760;6.726;2022-11-20T08:24:28;1.20;99.90
59007;DHT22;44792;52.760;6.726;2022-11-20T08:26:56;1.20;99.90
59007;DHT22;44792;52.760;6.726;2022-11-20T08:29:22;1.10;99.90
59007;DHT22;44792;52.760;6.726;2022-11-20T08:31:48;1.10;99.90
59007;DHT22;44792;52.760;6.726;2022-11-20T08:34:13;1.10;99.90
59007;DHT22;44792;52.760;6.726;2022-11-20T08:36:39;1.20;99.90
59007;DHT22;44792;52.760;6.726;2022-11-20T08:39:04;1.10;99.90
59007;DHT22;44792;52.760;6.726;2022-11-20T08:41:30;1.10;99.90
59007;DHT22;44792;52.760;6.726;2022-11-20T08:44:06;1.20;99.90
59007;DHT22;44792;52.760;6.726;2022-11-20T08:46:42;1.30;99.90
59007;DHT22;44792;52.760;6.726;2022-11-20T08:49:10;1.20;99.90
59007;DHT22;44792;52.760;6.726;2022-11-20T08:51:37;1.10;99.90
59007;DHT22;44792;52.760;6.726;2022-11-20T08:54:03;1.20;99.90
59007;DHT22;44792;52.760;6.726;2022-11-20T08:56:29;1.20;99.90
59007;DHT22;44792;52.760;6.726;2022-11-20T08:58:55;1.20;99.90
59007;DHT22;44792;52.760;6.726;2022-11-20T09:01:22;1.20;99.90
59007;DHT22;44792;52.760;6.726;2022-11-20T09:03:48;1.20;99.90
59007;DHT22;44792;52.760;6.726;2022-11-20T09:06:15;1.10;99.90
59007;DHT22;44792;52.760;6.726;2022-11-20T09:08:40;1.20;99.90
59007;DHT22;44792;52.760;6.726;2022-11-20T09:11:06;1.40;99.90
59007;DHT22;44792;52.760;6.726;2022-11-20T09:13:34;1.30;99.90
59007;DHT22;44792;52.760;6.726;2022-11-20T09:16:02;1.30;99.90
59007;DHT22;44792;52.760;6.726;2022-11-20T09:18:28;1.40;99.90
59007;DHT22;44792;52.760;6.726;2022-11-20T09:20:58;1.30;99.90
59007;DHT22;44792;52.760;6.726;2022-11-20T09:23:24;1.30;99.90
59007;DHT22;44792;52.760;6.726;2022-11-20T09:25:50;1.30;99.90
59007;DHT22;44792;52.760;6.726;2022-11-20T09:28:15;1.30;99.90
59007;DHT22;44792;52.760;6.726;2022-11-20T09:30:43;1.50;99.90
59007;DHT22;44792;52.760;6.726;2022-11-20T09:33:09;1.50;99.90
59007;DHT22;44792;52.760;6.726;2022-11-20T09:35:35;1.50;99.90
59007;DHT22;44792;52.760;6.726;2022-11-20T09:38:05;1.50;99.90
59007;DHT22;44792;52.760;6.726;2022-11-20T09:40:31;1.40;99.90
59007;DHT22;44792;52.760;6.726;2022-11-20T09:43:03;1.50;99.90
59007;DHT22;44792;52.760;6.726;2022-11-20T09:51:16;1.70;99.90
59007;DHT22;44792;52.760;6.726;2022-11-20T09:56:59;1.80;99.90
59007;DHT22;44792;52.760;6.726;2022-11-20T09:59:40;1.70;99.90
59007;DHT22;44792;52.760;6.726;2022-11-20T10:08:01;1.70;99.90
59007;DHT22;44792;52.760;6.726;2022-11-20T10:15:55;1.80;99.90
59007;DHT22;44792;52.760;6.726;2022-11-20T10:21:17;1.90;99.90
59007;DHT22;44792;52.760;6.726;2022-11-20T10:29:45;2.10;99.90
59007;DHT22;44792;52.760;6.726;2022-11-20T10:32:19;2.10;99.90
59007;DHT22;44792;52.760;6.726;2022-11-20T10:34:52;2.10;99.90
59007;DHT22;44792;52.760;6.726;2022-11-20T10:37:26;2.20;99.90
59007;DHT22;44792;52.760;6.726;2022-11-20T10:42:46;2.30;99.90
59007;DHT22;44792;52.760;6.726;2022-11-20T10:48:11;2.40;99.90
59007;DHT22;44792;52.760;6.726;2022-11-20T10:50:45;2.50;99.90
59007;DHT22;44792;52.760;6.726;2022-11-20T10:53:45;2.50;99.90
59007;DHT22;44792;52.760;6.726;2022-11-20T10:59:04;2.70;99.90
59007;DHT22;44792;52.760;6.726;2022-11-20T11:01:40;2.70;99.90
59007;DHT22;44792;52.760;6.726;2022-11-20T11:04:23;2.60;99.90
59007;DHT22;44792;52.760;6.726;2022-11-20T11:07:58;2.70;99.90
59007;DHT22;44792;52.760;6.726;2022-11-20T11:09:54;2.70;99.90
59007;DHT22;44792;52.760;6.726;2022-11-20T11:12:22;2.80;99.90
59007;DHT22;44792;52.760;6.726;2022-11-20T11:14:51;2.90;99.90
59007;DHT22;44792;52.760;6.726;2022-11-20T11:17:27;3.00;99.90
59007;DHT22;44792;52.760;6.726;2022-11-20T11:20:05;3.00;99.90
59007;DHT22;44792;52.760;6.726;2022-11-20T11:22:34;3.10;99.90
59007;DHT22;44792;52.760;6.726;2022-11-20T11:25:00;3.10;99.90
59007;DHT22;44792;52.760;6.726;2022-11-20T11:27:25;3.20;99.90
59007;DHT22;44792;52.760;6.726;2022-11-20T11:30:14;3.20;99.90
59007;DHT22;44792;52.760;6.726;2022-11-20T11:32:40;3.20;99.90
59007;DHT22;44792;52.760;6.726;2022-11-20T11:35:17;3.20;99.90
59007;DHT22;44792;52.760;6.726;2022-11-20T11:37:45;3.20;99.90
59007;DHT22;44792;52.760;6.726;2022-11-20T11:40:12;3.20;99.90
59007;DHT22;44792;52.760;6.726;2022-11-20T11:42:51;3.20;99.90
59007;DHT22;44792;52.760;6.726;2022-11-20T11:45:18;3.20;99.90
59007;DHT22;44792;52.760;6.726;2022-11-20T11:50:15;3.30;99.90
59007;DHT22;44792;52.760;6.726;2022-11-20T12:01:44;3.40;99.90
59007;DHT22;44792;52.760;6.726;2022-11-20T12:04:44;3.50;99.90
59007;DHT22;44792;52.760;6.726;2022-11-20T12:07:22;3.50;99.90
59007;DHT22;44792;52.760;6.726;2022-11-20T12:09:53;3.60;99.90
59007;DHT22;44792;52.760;6.726;2022-11-20T12:12:29;3.70;99.90
59007;DHT22;44792;52.760;6.726;2022-11-20T12:14:56;3.50;99.90
59007;DHT22;44792;52.760;6.726;2022-11-20T12:17:23;3.50;99.90
59007;DHT22;44792;52.760;6.726;2022-11-20T12:19:49;3.60;99.90
59007;DHT22;44792;52.760;6.726;2022-11-20T12:22:48;3.60;99.90
59007;DHT22;44792;52.760;6.726;2022-11-20T12:25:30;3.60;99.90
59007;DHT22;44792;52.760;6.726;2022-11-20T12:45:15;3.40;99.90
59007;DHT22;44792;52.760;6.726;2022-11-20T12:53:44;3.40;99.90
59007;DHT22;44792;52.760;6.726;2022-11-20T13:02:05;3.30;99.90
59007;DHT22;44792;52.760;6.726;2022-11-20T13:04:55;3.30;99.90
59007;DHT22;44792;52.760;6.726;2022-11-20T13:07:25;3.60;99.90
59007;DHT22;44792;52.760;6.726;2022-11-20T13:09:53;3.40;99.90
59007;DHT22;44792;52.760;6.726;2022-11-20T13:12:25;3.30;99.90
59007;DHT22;44792;52.760;6.726;2022-11-20T13:17:45;3.30;99.90
59007;DHT22;44792;52.760;6.726;2022-11-20T13:20:15;3.30;99.90
59007;DHT22;44792;52.760;6.726;2022-11-20T13:25:27;3.20;99.90
59007;DHT22;44792;52.760;6.726;2022-11-20T13:27:54;3.20;99.90
59007;DHT22;44792;52.760;6.726;2022-11-20T13:30:22;3.20;99.90
59007;DHT22;44792;52.760;6.726;2022-11-20T13:33:02;3.20;99.90
59007;DHT22;44792;52.760;6.726;2022-11-20T13:35:35;3.20;99.90
59007;DHT22;44792;52.760;6.726;2022-11-20T13:38:05;3.20;99.90
59007;DHT22;44792;52.760;6.726;2022-11-20T13:40:31;3.20;99.90
59007;DHT22;44792;52.760;6.726;2022-11-20T13:46:05;3.20;99.90
59007;DHT22;44792;52.760;6.726;2022-11-20T13:48:34;3.20;99.90
59007;DHT22;44792;52.760;6.726;2022-11-20T13:51:25;3.20;99.90
59007;DHT22;44792;52.760;6.726;2022-11-20T14:01:54;3.10;99.90
59007;DHT22;44792;52.760;6.726;2022-11-20T14:04:30;3.10;99.90
59007;DHT22;44792;52.760;6.726;2022-11-20T14:06:57;3.10;99.90
59007;DHT22;44792;52.760;6.726;2022-11-20T14:09:27;3.10;99.90
59007;DHT22;44792;52.760;6.726;2022-11-20T14:11:53;3.20;99.90
59007;DHT22;44792;52.760;6.726;2022-11-20T14:14:21;3.00;99.90
59007;DHT22;44792;52.760;6.726;2022-11-20T14:16:49;3.10;99.90
59007;DHT22;44792;52.760;6.726;2022-11-20T14:21:55;3.10;99.90
59007;DHT22;44792;52.760;6.726;2022-11-20T14:24:31;3.10;99.90
59007;DHT22;44792;52.760;6.726;2022-11-20T14:26:57;3.10;99.90
59007;DHT22;44792;52.760;6.726;2022-11-20T14:29:27;3.10;99.90
59007;DHT22;44792;52.760;6.726;2022-11-20T14:31:55;3.00;99.90
59007;DHT22;44792;52.760;6.726;2022-11-20T14:34:24;3.10;99.90
59007;DHT22;44792;52.760;6.726;2022-11-20T14:36:55;3.00;99.90
59007;DHT22;44792;52.760;6.726;2022-11-20T14:39:25;3.10;99.90
59007;DHT22;44792;52.760;6.726;2022-11-20T14:41:53;3.00;99.90
59007;DHT22;44792;52.760;6.726;2022-11-20T14:44:23;2.80;99.90
59007;DHT22;44792;52.760;6.726;2022-11-20T14:46:52;2.90;99.90
59007;DHT22;44792;52.760;6.726;2022-11-20T14:49:19;3.00;99.90
59007;DHT22;44792;52.760;6.726;2022-11-20T14:51:45;2.90;99.90
59007;DHT22;44792;52.760;6.726;2022-11-20T14:54:17;2.90;99.90
59007;DHT22;44792;52.760;6.726;2022-11-20T14:57:00;2.70;99.90
59007;DHT22;44792;52.760;6.726;2022-11-20T14:59:32;2.80;99.90
59007;DHT22;44792;52.760;6.726;2022-11-20T15:02:00;2.90;99.90
59007;DHT22;44792;52.760;6.726;2022-11-20T15:04:27;2.90;99.90
59007;DHT22;44792;52.760;6.726;2022-11-20T15:06:58;2.90;99.90
59007;DHT22;44792;52.760;6.726;2022-11-20T15:09:24;2.90;99.90
59007;DHT22;44792;52.760;6.726;2022-11-20T15:11:59;2.80;99.90
59007;DHT22;44792;52.760;6.726;2022-11-20T15:14:26;2.80;99.90
59007;DHT22;44792;52.760;6.726;2022-11-20T15:16:53;2.80;99.90
59007;DHT22;44792;52.760;6.726;2022-11-20T15:19:23;2.70;99.90
59007;DHT22;44792;52.760;6.726;2022-11-20T15:21:49;2.80;99.90
59007;DHT22;44792;52.760;6.726;2022-11-20T15:24:16;2.70;99.90
59007;DHT22;44792;52.760;6.726;2022-11-20T15:26:42;2.70;99.90
59007;DHT22;44792;52.760;6.726;2022-11-20T15:29:12;2.70;99.90
59007;DHT22;44792;52.760;6.726;2022-11-20T15:31:39;2.70;99.90
59007;DHT22;44792;52.760;6.726;2022-11-20T15:34:14;2.80;99.90
59007;DHT22;44792;52.760;6.726;2022-11-20T15:36:40;2.70;99.90
59007;DHT22;44792;52.760;6.726;2022-11-20T15:39:07;2.80;99.90
59007;DHT22;44792;52.760;6.726;2022-11-20T15:41:34;2.70;99.90
59007;DHT22;44792;52.760;6.726;2022-11-20T15:44:00;2.60;99.90
59007;DHT22;44792;52.760;6.726;2022-11-20T15:46:28;2.50;99.90
59007;DHT22;44792;52.760;6.726;2022-11-20T15:48:55;2.50;99.90
59007;DHT22;44792;52.760;6.726;2022-11-20T15:51:27;2.60;99.90
59007;DHT22;44792;52.760;6.726;2022-11-20T15:53:55;2.70;99.90
59007;DHT22;44792;52.760;6.726;2022-11-20T15:56:21;2.70;99.90
59007;DHT22;44792;52.760;6.726;2022-11-20T15:58:46;2.80;99.90
59007;DHT22;44792;52.760;6.726;2022-11-20T16:01:14;2.80;99.90
59007;DHT22;44792;52.760;6.726;2022-11-20T16:03:40;2.90;99.90
59007;DHT22;44792;52.760;6.726;2022-11-20T16:06:06;2.90;99.90
59007;DHT22;44792;52.760;6.726;2022-11-20T16:08:32;2.90;99.90
59007;DHT22;44792;52.760;6.726;2022-11-20T16:10:58;2.80;99.90
59007;DHT22;44792;52.760;6.726;2022-11-20T16:13:23;2.80;99.90
59007;DHT22;44792;52.760;6.726;2022-11-20T16:16:18;2.90;99.90
59007;DHT22;44792;52.760;6.726;2022-11-20T16:18:44;2.80;99.90
59007;DHT22;44792;52.760;6.726;2022-11-20T16:21:13;2.80;99.90
59007;DHT22;44792;52.760;6.726;2022-11-20T16:23:39;2.90;99.90
59007;DHT22;44792;52.760;6.726;2022-11-20T16:26:11;2.80;99.90
59007;DHT22;44792;52.760;6.726;2022-11-20T16:28:37;2.90;99.90
59007;DHT22;44792;52.760;6.726;2022-11-20T16:31:11;2.70;99.90
59007;DHT22;44792;52.760;6.726;2022-11-20T16:33:36;2.80;99.90
59007;DHT22;44792;52.760;6.726;2022-11-20T16:36:12;2.70;99.90
59007;DHT22;44792;52.760;6.726;2022-11-20T16:38:39;2.80;99.90
59007;DHT22;44792;52.760;6.726;2022-11-20T16:41:05;2.70;99.90
59007;DHT22;44792;52.760;6.726;2022-11-20T16:43:31;2.70;99.90
59007;DHT22;44792;52.760;6.726;2022-11-20T16:45:57;2.70;99.90
59007;DHT22;44792;52.760;6.726;2022-11-20T16:48:22;2.80;99.90
59007;DHT22;44792;52.760;6.726;2022-11-20T16:50:50;2.80;99.90
59007;DHT22;44792;52.760;6.726;2022-11-20T16:53:18;2.80;99.90
59007;DHT22;44792;52.760;6.726;2022-11-20T16:55:44;2.80;99.90
59007;DHT22;44792;52.760;6.726;2022-11-20T16:58:09;2.70;99.90
59007;DHT22;44792;52.760;6.726;2022-11-20T17:00:36;2.60;99.90
59007;DHT22;44792;52.760;6.726;2022-11-20T17:03:03;2.70;99.90
59007;DHT22;44792;52.760;6.726;2022-11-20T17:05:29;2.70;99.90
59007;DHT22;44792;52.760;6.726;2022-11-20T17:07:55;2.70;99.90
59007;DHT22;44792;52.760;6.726;2022-11-20T17:10:21;2.60;99.90
59007;DHT22;44792;52.760;6.726;2022-11-20T17:12:46;2.50;99.90
59007;DHT22;44792;52.760;6.726;2022-11-20T17:15:12;2.50;99.90
59007;DHT22;44792;52.760;6.726;2022-11-20T17:17:37;2.50;99.90
59007;DHT22;44792;52.760;6.726;2022-11-20T17:20:03;2.40;99.90
59007;DHT22;44792;52.760;6.726;2022-11-20T17:22:30;2.50;99.90
59007;DHT22;44792;52.760;6.726;2022-11-20T17:24:56;2.50;99.90
59007;DHT22;44792;52.760;6.726;2022-11-20T17:27:22;2.50;99.90
59007;DHT22;44792;52.760;6.726;2022-11-20T17:29:47;2.50;99.90
59007;DHT22;44792;52.760;6.726;2022-11-20T17:32:13;2.50;99.90
59007;DHT22;44792;52.760;6.726;2022-11-20T17:34:38;2.40;99.90